Weather at Triple R Ranch Airport

Public forecast

Using degrees Fahrenheit for public forecast. Weather courtesy of forecast.io.

Closest aviation weather report (METAR) to Triple R Ranch Airport

Closest report is Crater Lake-Klamath Regional Airport, 25.7 nm (47.5 km) NNE. Retrieved 2021/06/21 08:53 UTC (13 minutes ago):

KLMT 210853Z AUTO 30003KT 10SM CLR 17/07 A3001 RMK AO2 SLP109 T01720072 50003

Closest aviation forecast (TAF) to Triple R Ranch Airport

Closest forecast is Crater Lake-Klamath Regional Airport, 25.7 nm (47.5 km) NNE. Retrieved 2021/06/21 06:45 UTC (2 hours ago):

TAF KLMT 210542Z 2106/2206 VRB03KT P6SM SKC FM212100 24008G15KT P6SM SCT090 BKN150 FM220200 32015G25KT P6SM VCTS BKN090CB BKN150